sensor_id;sensor_type;location;lat;lon;timestamp;P1;durP1;ratioP1;P2;durP2;ratioP2
1020;SDS011;499;42.648;23.270;2024-02-04T00:01:29;4.60;;;4.10;;
1020;SDS011;499;42.648;23.270;2024-02-04T00:03:58;5.80;;;4.63;;
1020;SDS011;499;42.648;23.270;2024-02-04T00:06:28;4.60;;;4.00;;
1020;SDS011;499;42.648;23.270;2024-02-04T00:08:59;6.20;;;4.40;;
1020;SDS011;499;42.648;23.270;2024-02-04T00:11:31;4.87;;;4.40;;
1020;SDS011;499;42.648;23.270;2024-02-04T00:14:00;5.20;;;4.40;;
1020;SDS011;499;42.648;23.270;2024-02-04T00:16:30;5.80;;;5.07;;
1020;SDS011;499;42.648;23.270;2024-02-04T00:18:59;5.30;;;4.13;;
1020;SDS011;499;42.648;23.270;2024-02-04T00:21:27;6.70;;;4.50;;
1020;SDS011;499;42.648;23.270;2024-02-04T00:23:56;6.90;;;5.03;;
1020;SDS011;499;42.648;23.270;2024-02-04T00:26:26;5.10;;;4.40;;
1020;SDS011;499;42.648;23.270;2024-02-04T00:28:53;4.50;;;4.10;;
1020;SDS011;499;42.648;23.270;2024-02-04T00:31:24;5.93;;;5.13;;
1020;SDS011;499;42.648;23.270;2024-02-04T00:33:51;5.00;;;4.50;;
1020;SDS011;499;42.648;23.270;2024-02-04T00:36:19;5.10;;;4.60;;
1020;SDS011;499;42.648;23.270;2024-02-04T00:38:50;4.50;;;4.10;;
1020;SDS011;499;42.648;23.270;2024-02-04T00:41:22;6.80;;;4.97;;
1020;SDS011;499;42.648;23.270;2024-02-04T00:43:52;5.93;;;4.70;;
1020;SDS011;499;42.648;23.270;2024-02-04T00:46:21;5.53;;;4.87;;
1020;SDS011;499;42.648;23.270;2024-02-04T00:48:53;5.33;;;4.40;;
1020;SDS011;499;42.648;23.270;2024-02-04T00:51:23;5.30;;;4.43;;
1020;SDS011;499;42.648;23.270;2024-02-04T00:53:54;4.60;;;4.00;;
1020;SDS011;499;42.648;23.270;2024-02-04T00:56:24;4.47;;;3.70;;
1020;SDS011;499;42.648;23.270;2024-02-04T00:58:54;8.30;;;4.43;;
1020;SDS011;499;42.648;23.270;2024-02-04T01:02:12;5.60;;;4.00;;
1020;SDS011;499;42.648;23.270;2024-02-04T01:05:45;4.33;;;3.87;;
1020;SDS011;499;42.648;23.270;2024-02-04T01:09:41;3.73;;;3.20;;
1020;SDS011;499;42.648;23.270;2024-02-04T01:13:34;4.50;;;3.93;;
1020;SDS011;499;42.648;23.270;2024-02-04T01:16:38;4.37;;;2.90;;
1020;SDS011;499;42.648;23.270;2024-02-04T01:20:16;4.57;;;3.20;;
1020;SDS011;499;42.648;23.270;2024-02-04T01:22:49;4.13;;;3.57;;
1020;SDS011;499;42.648;23.270;2024-02-04T01:25:38;4.30;;;3.63;;
1020;SDS011;499;42.648;23.270;2024-02-04T01:28:09;4.57;;;3.70;;
1020;SDS011;499;42.648;23.270;2024-02-04T01:30:44;3.40;;;3.10;;
1020;SDS011;499;42.648;23.270;2024-02-04T01:33:24;4.73;;;3.20;;
1020;SDS011;499;42.648;23.270;2024-02-04T01:36:14;4.93;;;3.90;;
1020;SDS011;499;42.648;23.270;2024-02-04T01:38:52;4.50;;;3.50;;
1020;SDS011;499;42.648;23.270;2024-02-04T01:42:23;3.97;;;3.57;;
1020;SDS011;499;42.648;23.270;2024-02-04T01:45:10;3.67;;;2.77;;
1020;SDS011;499;42.648;23.270;2024-02-04T01:58:54;3.53;;;2.67;;
1020;SDS011;499;42.648;23.270;2024-02-04T04:10:01;2.90;;;2.37;;
1020;SDS011;499;42.648;23.270;2024-02-04T04:12:28;2.70;;;2.50;;
1020;SDS011;499;42.648;23.270;2024-02-04T04:14:55;3.47;;;2.53;;
1020;SDS011;499;42.648;23.270;2024-02-04T04:17:22;2.93;;;2.70;;
1020;SDS011;499;42.648;23.270;2024-02-04T04:19:49;3.80;;;2.50;;
1020;SDS011;499;42.648;23.270;2024-02-04T04:22:16;3.83;;;2.27;;
1020;SDS011;499;42.648;23.270;2024-02-04T04:24:43;2.60;;;2.37;;
1020;SDS011;499;42.648;23.270;2024-02-04T04:27:12;3.10;;;2.77;;
1020;SDS011;499;42.648;23.270;2024-02-04T04:29:39;3.20;;;2.33;;
1020;SDS011;499;42.648;23.270;2024-02-04T04:32:06;2.73;;;2.33;;
1020;SDS011;499;42.648;23.270;2024-02-04T04:34:33;2.10;;;1.90;;
1020;SDS011;499;42.648;23.270;2024-02-04T04:37:00;2.67;;;2.37;;
1020;SDS011;499;42.648;23.270;2024-02-04T04:39:27;2.37;;;2.17;;
1020;SDS011;499;42.648;23.270;2024-02-04T04:41:54;2.57;;;2.20;;
1020;SDS011;499;42.648;23.270;2024-02-04T04:44:22;2.73;;;2.50;;
1020;SDS011;499;42.648;23.270;2024-02-04T04:46:50;2.80;;;2.57;;
1020;SDS011;499;42.648;23.270;2024-02-04T04:49:17;2.93;;;2.73;;
1020;SDS011;499;42.648;23.270;2024-02-04T04:51:44;5.07;;;2.80;;
1020;SDS011;499;42.648;23.270;2024-02-04T04:54:12;2.83;;;2.60;;
1020;SDS011;499;42.648;23.270;2024-02-04T04:56:39;2.33;;;2.10;;
1020;SDS011;499;42.648;23.270;2024-02-04T04:59:08;4.03;;;2.50;;
1020;SDS011;499;42.648;23.270;2024-02-04T05:01:36;3.60;;;2.70;;
1020;SDS011;499;42.648;23.270;2024-02-04T05:04:03;2.97;;;2.67;;
1020;SDS011;499;42.648;23.270;2024-02-04T05:06:30;3.53;;;3.20;;
1020;SDS011;499;42.648;23.270;2024-02-04T05:08:57;3.33;;;3.03;;
1020;SDS011;499;42.648;23.270;2024-02-04T05:11:24;4.07;;;3.30;;
1020;SDS011;499;42.648;23.270;2024-02-04T05:13:51;2.67;;;2.47;;
1020;SDS011;499;42.648;23.270;2024-02-04T05:16:19;3.87;;;3.47;;
1020;SDS011;499;42.648;23.270;2024-02-04T05:18:48;3.30;;;2.43;;
1020;SDS011;499;42.648;23.270;2024-02-04T05:21:15;2.83;;;2.63;;
1020;SDS011;499;42.648;23.270;2024-02-04T05:23:43;2.47;;;2.20;;
1020;SDS011;499;42.648;23.270;2024-02-04T05:26:10;3.43;;;2.77;;
1020;SDS011;499;42.648;23.270;2024-02-04T05:28:37;2.73;;;2.23;;
1020;SDS011;499;42.648;23.270;2024-02-04T05:31:05;2.30;;;2.10;;
1020;SDS011;499;42.648;23.270;2024-02-04T05:33:33;2.43;;;2.23;;
1020;SDS011;499;42.648;23.270;2024-02-04T05:36:01;3.67;;;2.40;;
1020;SDS011;499;42.648;23.270;2024-02-04T05:38:28;3.70;;;3.33;;
1020;SDS011;499;42.648;23.270;2024-02-04T05:40:55;3.27;;;2.50;;
1020;SDS011;499;42.648;23.270;2024-02-04T05:43:22;3.43;;;2.30;;
1020;SDS011;499;42.648;23.270;2024-02-04T05:45:49;3.30;;;2.93;;
1020;SDS011;499;42.648;23.270;2024-02-04T05:48:16;3.50;;;2.60;;
1020;SDS011;499;42.648;23.270;2024-02-04T05:50:44;2.63;;;2.30;;
1020;SDS011;499;42.648;23.270;2024-02-04T05:53:12;2.83;;;2.40;;
1020;SDS011;499;42.648;23.270;2024-02-04T05:55:39;2.83;;;2.53;;
1020;SDS011;499;42.648;23.270;2024-02-04T05:58:06;2.83;;;2.13;;
1020;SDS011;499;42.648;23.270;2024-02-04T06:00:33;3.30;;;2.70;;
1020;SDS011;499;42.648;23.270;2024-02-04T06:03:01;3.03;;;2.03;;
1020;SDS011;499;42.648;23.270;2024-02-04T06:05:28;3.10;;;2.80;;
1020;SDS011;499;42.648;23.270;2024-02-04T06:07:55;2.53;;;2.33;;
1020;SDS011;499;42.648;23.270;2024-02-04T06:10:23;3.70;;;2.73;;
1020;SDS011;499;42.648;23.270;2024-02-04T06:12:50;4.37;;;3.63;;
1020;SDS011;499;42.648;23.270;2024-02-04T06:15:17;3.87;;;3.47;;
1020;SDS011;499;42.648;23.270;2024-02-04T06:17:46;4.10;;;2.47;;
1020;SDS011;499;42.648;23.270;2024-02-04T06:20:13;4.67;;;3.10;;
1020;SDS011;499;42.648;23.270;2024-02-04T06:22:40;2.90;;;2.60;;
1020;SDS011;499;42.648;23.270;2024-02-04T06:25:07;3.50;;;2.70;;
1020;SDS011;499;42.648;23.270;2024-02-04T06:27:36;2.90;;;2.60;;
1020;SDS011;499;42.648;23.270;2024-02-04T06:30:04;2.40;;;2.20;;
1020;SDS011;499;42.648;23.270;2024-02-04T06:32:33;3.60;;;2.40;;
1020;SDS011;499;42.648;23.270;2024-02-04T06:35:00;5.10;;;2.70;;
1020;SDS011;499;42.648;23.270;2024-02-04T06:37:27;3.80;;;2.20;;
1020;SDS011;499;42.648;23.270;2024-02-04T06:39:54;4.50;;;3.10;;
1020;SDS011;499;42.648;23.270;2024-02-04T06:42:21;2.33;;;2.13;;
1020;SDS011;499;42.648;23.270;2024-02-04T06:44:50;5.40;;;3.33;;
1020;SDS011;499;42.648;23.270;2024-02-04T06:47:17;3.00;;;2.70;;
1020;SDS011;499;42.648;23.270;2024-02-04T06:49:44;2.67;;;2.43;;
1020;SDS011;499;42.648;23.270;2024-02-04T06:52:11;3.27;;;2.30;;
1020;SDS011;499;42.648;23.270;2024-02-04T06:54:38;2.80;;;2.20;;
1020;SDS011;499;42.648;23.270;2024-02-04T06:57:05;2.70;;;2.30;;
1020;SDS011;499;42.648;23.270;2024-02-04T06:59:32;2.10;;;1.73;;
1020;SDS011;499;42.648;23.270;2024-02-04T07:02:01;2.07;;;1.87;;
1020;SDS011;499;42.648;23.270;2024-02-04T07:04:28;4.50;;;2.70;;
1020;SDS011;499;42.648;23.270;2024-02-04T07:06:55;2.23;;;1.80;;
1020;SDS011;499;42.648;23.270;2024-02-04T07:09:22;2.60;;;2.20;;
1020;SDS011;499;42.648;23.270;2024-02-04T07:11:49;3.20;;;2.53;;
1020;SDS011;499;42.648;23.270;2024-02-04T07:14:16;2.47;;;2.20;;
1020;SDS011;499;42.648;23.270;2024-02-04T07:16:43;2.83;;;2.60;;
1020;SDS011;499;42.648;23.270;2024-02-04T07:19:11;3.40;;;2.60;;
1020;SDS011;499;42.648;23.270;2024-02-04T07:21:38;2.80;;;2.50;;
1020;SDS011;499;42.648;23.270;2024-02-04T07:24:06;3.03;;;2.73;;
1020;SDS011;499;42.648;23.270;2024-02-04T07:26:33;2.67;;;2.00;;
1020;SDS011;499;42.648;23.270;2024-02-04T07:29:00;2.67;;;2.30;;
1020;SDS011;499;42.648;23.270;2024-02-04T07:31:27;3.43;;;3.17;;
1020;SDS011;499;42.648;23.270;2024-02-04T07:33:54;2.60;;;2.30;;
1020;SDS011;499;42.648;23.270;2024-02-04T07:36:22;4.10;;;2.60;;
1020;SDS011;499;42.648;23.270;2024-02-04T07:38:49;3.00;;;2.17;;
1020;SDS011;499;42.648;23.270;2024-02-04T07:41:16;2.80;;;2.40;;
1020;SDS011;499;42.648;23.270;2024-02-04T07:43:43;2.30;;;1.90;;
1020;SDS011;499;42.648;23.270;2024-02-04T07:46:10;3.70;;;2.30;;
1020;SDS011;499;42.648;23.270;2024-02-04T07:48:37;3.17;;;2.80;;
1020;SDS011;499;42.648;23.270;2024-02-04T07:51:04;4.13;;;2.83;;
1020;SDS011;499;42.648;23.270;2024-02-04T07:53:34;2.53;;;2.00;;
1020;SDS011;499;42.648;23.270;2024-02-04T07:56:02;3.97;;;2.03;;
1020;SDS011;499;42.648;23.270;2024-02-04T07:58:31;3.20;;;1.63;;
1020;SDS011;499;42.648;23.270;2024-02-04T08:00:58;2.10;;;1.40;;
1020;SDS011;499;42.648;23.270;2024-02-04T08:03:25;2.27;;;1.47;;
1020;SDS011;499;42.648;23.270;2024-02-04T08:05:52;2.07;;;1.80;;
1020;SDS011;499;42.648;23.270;2024-02-04T08:08:19;3.37;;;1.47;;
1020;SDS011;499;42.648;23.270;2024-02-04T08:10:48;2.27;;;1.77;;
1020;SDS011;499;42.648;23.270;2024-02-04T08:13:15;2.37;;;1.30;;
1020;SDS011;499;42.648;23.270;2024-02-04T08:15:42;2.30;;;1.60;;
1020;SDS011;499;42.648;23.270;2024-02-04T08:18:09;2.23;;;1.70;;
1020;SDS011;499;42.648;23.270;2024-02-04T08:20:36;1.40;;;1.17;;
1020;SDS011;499;42.648;23.270;2024-02-04T08:23:03;1.30;;;1.10;;
1020;SDS011;499;42.648;23.270;2024-02-04T08:25:30;1.47;;;1.00;;
1020;SDS011;499;42.648;23.270;2024-02-04T08:27:59;1.30;;;0.90;;
1020;SDS011;499;42.648;23.270;2024-02-04T08:30:26;1.30;;;0.97;;
1020;SDS011;499;42.648;23.270;2024-02-04T08:32:53;1.70;;;1.03;;
1020;SDS011;499;42.648;23.270;2024-02-04T08:35:20;1.50;;;1.20;;
1020;SDS011;499;42.648;23.270;2024-02-04T08:37:47;1.37;;;0.83;;
1020;SDS011;499;42.648;23.270;2024-02-04T08:40:14;1.70;;;1.13;;
1020;SDS011;499;42.648;23.270;2024-02-04T08:42:41;1.67;;;1.10;;
1020;SDS011;499;42.648;23.270;2024-02-04T08:45:10;1.30;;;1.07;;
1020;SDS011;499;42.648;23.270;2024-02-04T08:47:37;2.10;;;1.50;;
1020;SDS011;499;42.648;23.270;2024-02-04T08:50:04;2.20;;;1.20;;
1020;SDS011;499;42.648;23.270;2024-02-04T08:52:32;1.50;;;1.10;;
1020;SDS011;499;42.648;23.270;2024-02-04T08:54:59;1.30;;;1.10;;
1020;SDS011;499;42.648;23.270;2024-02-04T08:57:29;2.30;;;1.67;;
1020;SDS011;499;42.648;23.270;2024-02-04T08:59:56;1.70;;;1.33;;
1020;SDS011;499;42.648;23.270;2024-02-04T09:02:24;1.53;;;1.17;;
1020;SDS011;499;42.648;23.270;2024-02-04T09:04:51;2.60;;;1.43;;
1020;SDS011;499;42.648;23.270;2024-02-04T09:07:19;1.77;;;1.30;;
1020;SDS011;499;42.648;23.270;2024-02-04T09:09:46;2.47;;;1.80;;
1020;SDS011;499;42.648;23.270;2024-02-04T09:12:13;3.47;;;2.50;;
1020;SDS011;499;42.648;23.270;2024-02-04T09:14:40;3.20;;;1.57;;
1020;SDS011;499;42.648;23.270;2024-02-04T09:17:07;2.50;;;1.70;;
1020;SDS011;499;42.648;23.270;2024-02-04T09:19:36;2.30;;;2.10;;
1020;SDS011;499;42.648;23.270;2024-02-04T09:22:03;2.23;;;1.50;;
1020;SDS011;499;42.648;23.270;2024-02-04T09:24:30;2.93;;;1.40;;
1020;SDS011;499;42.648;23.270;2024-02-04T09:26:57;2.20;;;1.40;;
1020;SDS011;499;42.648;23.270;2024-02-04T09:29:24;2.37;;;1.97;;
1020;SDS011;499;42.648;23.270;2024-02-04T09:31:51;2.27;;;2.07;;
1020;SDS011;499;42.648;23.270;2024-02-04T09:34:19;4.30;;;3.30;;
1020;SDS011;499;42.648;23.270;2024-02-04T09:36:47;3.20;;;2.90;;
1020;SDS011;499;42.648;23.270;2024-02-04T09:39:14;6.50;;;4.00;;
1020;SDS011;499;42.648;23.270;2024-02-04T09:41:43;3.40;;;2.80;;
1020;SDS011;499;42.648;23.270;2024-02-04T09:44:10;3.17;;;2.67;;
1020;SDS011;499;42.648;23.270;2024-02-04T09:46:39;2.97;;;2.67;;
1020;SDS011;499;42.648;23.270;2024-02-04T09:49:06;4.00;;;2.60;;
1020;SDS011;499;42.648;23.270;2024-02-04T09:51:34;3.40;;;3.00;;
1020;SDS011;499;42.648;23.270;2024-02-04T09:54:03;5.20;;;4.23;;
1020;SDS011;499;42.648;23.270;2024-02-04T09:56:32;3.27;;;2.93;;
1020;SDS011;499;42.648;23.270;2024-02-04T09:59:01;5.30;;;3.27;;
1020;SDS011;499;42.648;23.270;2024-02-04T10:01:28;3.80;;;3.10;;
1020;SDS011;499;42.648;23.270;2024-02-04T10:03:56;5.83;;;3.27;;
1020;SDS011;499;42.648;23.270;2024-02-04T10:06:23;4.40;;;3.00;;
1020;SDS011;499;42.648;23.270;2024-02-04T10:08:50;3.90;;;3.20;;
1020;SDS011;499;42.648;23.270;2024-02-04T10:11:19;3.57;;;2.60;;
1020;SDS011;499;42.648;23.270;2024-02-04T10:13:46;3.67;;;2.90;;
1020;SDS011;499;42.648;23.270;2024-02-04T10:16:14;4.70;;;3.23;;
1020;SDS011;499;42.648;23.270;2024-02-04T10:18:42;3.60;;;3.00;;
1020;SDS011;499;42.648;23.270;2024-02-04T10:21:16;5.87;;;2.30;;
1020;SDS011;499;42.648;23.270;2024-02-04T10:23:44;6.80;;;3.03;;
1020;SDS011;499;42.648;23.270;2024-02-04T10:26:11;6.47;;;5.17;;
1020;SDS011;499;42.648;23.270;2024-02-04T10:28:40;4.33;;;3.80;;
1020;SDS011;499;42.648;23.270;2024-02-04T10:31:12;5.10;;;4.67;;
1020;SDS011;499;42.648;23.270;2024-02-04T10:33:39;5.20;;;3.70;;
1020;SDS011;499;42.648;23.270;2024-02-04T10:36:06;4.90;;;3.90;;
1020;SDS011;499;42.648;23.270;2024-02-04T10:38:33;3.37;;;2.80;;
1020;SDS011;499;42.648;23.270;2024-02-04T10:41:01;2.83;;;2.30;;
1020;SDS011;499;42.648;23.270;2024-02-04T10:43:28;2.77;;;2.50;;
1020;SDS011;499;42.648;23.270;2024-02-04T10:46:04;3.10;;;2.30;;
1020;SDS011;499;42.648;23.270;2024-02-04T10:48:36;4.23;;;3.37;;
1020;SDS011;499;42.648;23.270;2024-02-04T10:51:09;3.43;;;2.47;;
1020;SDS011;499;42.648;23.270;2024-02-04T10:53:39;4.60;;;4.00;;
1020;SDS011;499;42.648;23.270;2024-02-04T10:56:07;2.87;;;2.20;;
1020;SDS011;499;42.648;23.270;2024-02-04T10:58:44;3.23;;;2.93;;
1020;SDS011;499;42.648;23.270;2024-02-04T11:01:14;7.50;;;6.77;;
1020;SDS011;499;42.648;23.270;2024-02-04T11:03:42;7.70;;;4.80;;
1020;SDS011;499;42.648;23.270;2024-02-04T11:06:11;11.47;;;8.73;;
1020;SDS011;499;42.648;23.270;2024-02-04T11:08:39;4.87;;;4.37;;
1020;SDS011;499;42.648;23.270;2024-02-04T11:11:07;3.70;;;3.20;;
1020;SDS011;499;42.648;23.270;2024-02-04T11:13:34;5.37;;;4.13;;
1020;SDS011;499;42.648;23.270;2024-02-04T11:16:04;4.60;;;3.47;;
1020;SDS011;499;42.648;23.270;2024-02-04T11:18:49;4.00;;;2.83;;
1020;SDS011;499;42.648;23.270;2024-02-04T11:24:24;3.50;;;3.00;;
1020;SDS011;499;42.648;23.270;2024-02-04T11:27:03;3.37;;;2.70;;
1020;SDS011;499;42.648;23.270;2024-02-04T11:29:30;4.17;;;3.50;;
1020;SDS011;499;42.648;23.270;2024-02-04T11:31:59;12.37;;;10.90;;
1020;SDS011;499;42.648;23.270;2024-02-04T11:34:28;3.77;;;3.13;;
1020;SDS011;499;42.648;23.270;2024-02-04T11:36:55;2.90;;;2.60;;
1020;SDS011;499;42.648;23.270;2024-02-04T11:39:24;3.40;;;2.70;;
1020;SDS011;499;42.648;23.270;2024-02-04T11:41:51;4.10;;;2.80;;
1020;SDS011;499;42.648;23.270;2024-02-04T11:44:21;2.93;;;2.73;;
1020;SDS011;499;42.648;23.270;2024-02-04T11:46:49;4.80;;;3.37;;
1020;SDS011;499;42.648;23.270;2024-02-04T11:49:17;4.67;;;3.50;;
1020;SDS011;499;42.648;23.270;2024-02-04T11:51:50;2.80;;;2.60;;
1020;SDS011;499;42.648;23.270;2024-02-04T11:54:18;3.77;;;2.63;;
1020;SDS011;499;42.648;23.270;2024-02-04T11:56:48;3.20;;;2.73;;
1020;SDS011;499;42.648;23.270;2024-02-04T11:59:18;2.00;;;1.83;;
1020;SDS011;499;42.648;23.270;2024-02-04T12:01:46;2.77;;;2.20;;
1020;SDS011;499;42.648;23.270;2024-02-04T12:04:16;4.10;;;2.73;;
1020;SDS011;499;42.648;23.270;2024-02-04T12:06:43;5.00;;;3.87;;
1020;SDS011;499;42.648;23.270;2024-02-04T12:09:12;10.37;;;4.80;;
1020;SDS011;499;42.648;23.270;2024-02-04T12:11:43;7.33;;;4.93;;
1020;SDS011;499;42.648;23.270;2024-02-04T12:14:10;6.63;;;4.43;;
1020;SDS011;499;42.648;23.270;2024-02-04T12:16:39;4.30;;;3.90;;
1020;SDS011;499;42.648;23.270;2024-02-04T12:19:07;3.70;;;2.73;;
1020;SDS011;499;42.648;23.270;2024-02-04T12:21:34;4.37;;;2.00;;
1020;SDS011;499;42.648;23.270;2024-02-04T12:24:02;2.60;;;2.30;;
1020;SDS011;499;42.648;23.270;2024-02-04T12:26:31;3.60;;;3.17;;
1020;SDS011;499;42.648;23.270;2024-02-04T12:28:58;4.17;;;2.97;;
1020;SDS011;499;42.648;23.270;2024-02-04T12:31:26;3.63;;;3.33;;
1020;SDS011;499;42.648;23.270;2024-02-04T12:33:54;2.80;;;2.00;;
1020;SDS011;499;42.648;23.270;2024-02-04T12:36:23;2.70;;;2.50;;
1020;SDS011;499;42.648;23.270;2024-02-04T12:38:52;2.40;;;2.20;;
1020;SDS011;499;42.648;23.270;2024-02-04T12:41:20;4.00;;;2.87;;
1020;SDS011;499;42.648;23.270;2024-02-04T12:43:53;2.93;;;2.50;;
1020;SDS011;499;42.648;23.270;2024-02-04T12:46:21;3.30;;;2.97;;
1020;SDS011;499;42.648;23.270;2024-02-04T12:48:52;4.70;;;4.20;;
1020;SDS011;499;42.648;23.270;2024-02-04T12:51:23;3.63;;;3.07;;
1020;SDS011;499;42.648;23.270;2024-02-04T12:54:01;4.93;;;3.80;;
1020;SDS011;499;42.648;23.270;2024-02-04T12:56:39;3.40;;;2.70;;
1020;SDS011;499;42.648;23.270;2024-02-04T12:59:08;3.80;;;3.10;;
1020;SDS011;499;42.648;23.270;2024-02-04T13:01:35;2.70;;;2.40;;
1020;SDS011;499;42.648;23.270;2024-02-04T13:04:03;5.10;;;2.90;;
1020;SDS011;499;42.648;23.270;2024-02-04T13:06:30;4.10;;;3.17;;
1020;SDS011;499;42.648;23.270;2024-02-04T13:08:58;2.97;;;2.53;;
1020;SDS011;499;42.648;23.270;2024-02-04T13:11:25;3.33;;;3.03;;
1020;SDS011;499;42.648;23.270;2024-02-04T13:13:52;3.57;;;2.77;;
1020;SDS011;499;42.648;23.270;2024-02-04T13:16:21;2.60;;;2.10;;
1020;SDS011;499;42.648;23.270;2024-02-04T13:18:51;3.20;;;2.77;;
1020;SDS011;499;42.648;23.270;2024-02-04T13:21:19;4.10;;;3.70;;
1020;SDS011;499;42.648;23.270;2024-02-04T13:23:47;3.30;;;2.10;;
1020;SDS011;499;42.648;23.270;2024-02-04T13:26:14;2.50;;;2.30;;
1020;SDS011;499;42.648;23.270;2024-02-04T13:28:42;5.17;;;2.60;;
1020;SDS011;499;42.648;23.270;2024-02-04T13:31:09;2.00;;;1.63;;
1020;SDS011;499;42.648;23.270;2024-02-04T13:33:39;4.57;;;3.80;;
1020;SDS011;499;42.648;23.270;2024-02-04T13:36:06;2.60;;;2.40;;
1020;SDS011;499;42.648;23.270;2024-02-04T13:38:34;3.47;;;3.17;;
1020;SDS011;499;42.648;23.270;2024-02-04T13:41:01;3.53;;;3.00;;
1020;SDS011;499;42.648;23.270;2024-02-04T13:43:31;3.27;;;1.90;;
1020;SDS011;499;42.648;23.270;2024-02-04T13:45:59;3.73;;;2.50;;
1020;SDS011;499;42.648;23.270;2024-02-04T13:48:26;5.10;;;4.23;;
1020;SDS011;499;42.648;23.270;2024-02-04T13:50:55;3.73;;;3.40;;
1020;SDS011;499;42.648;23.270;2024-02-04T13:53:22;5.83;;;4.33;;
1020;SDS011;499;42.648;23.270;2024-02-04T13:55:49;4.70;;;3.70;;
1020;SDS011;499;42.648;23.270;2024-02-04T13:58:16;4.37;;;3.97;;
1020;SDS011;499;42.648;23.270;2024-02-04T14:00:44;4.17;;;3.17;;
1020;SDS011;499;42.648;23.270;2024-02-04T14:03:11;3.87;;;3.57;;
1020;SDS011;499;42.648;23.270;2024-02-04T14:05:38;5.23;;;3.70;;
1020;SDS011;499;42.648;23.270;2024-02-04T14:08:07;3.90;;;3.20;;
1020;SDS011;499;42.648;23.270;2024-02-04T14:10:34;3.27;;;2.50;;
1020;SDS011;499;42.648;23.270;2024-02-04T14:13:01;3.10;;;2.67;;
1020;SDS011;499;42.648;23.270;2024-02-04T14:15:30;2.67;;;2.47;;
1020;SDS011;499;42.648;23.270;2024-02-04T14:17:57;2.60;;;2.23;;
1020;SDS011;499;42.648;23.270;2024-02-04T14:20:24;2.40;;;2.10;;
1020;SDS011;499;42.648;23.270;2024-02-04T14:22:51;2.83;;;2.40;;
1020;SDS011;499;42.648;23.270;2024-02-04T14:25:20;3.60;;;2.60;;
1020;SDS011;499;42.648;23.270;2024-02-04T14:27:49;2.70;;;2.37;;
1020;SDS011;499;42.648;23.270;2024-02-04T14:30:16;4.83;;;3.43;;
1020;SDS011;499;42.648;23.270;2024-02-04T14:32:43;3.57;;;2.67;;
1020;SDS011;499;42.648;23.270;2024-02-04T14:35:10;2.27;;;2.07;;
1020;SDS011;499;42.648;23.270;2024-02-04T14:37:37;4.37;;;3.80;;
1020;SDS011;499;42.648;23.270;2024-02-04T14:40:05;2.87;;;2.50;;
1020;SDS011;499;42.648;23.270;2024-02-04T14:42:34;3.47;;;3.00;;
1020;SDS011;499;42.648;23.270;2024-02-04T14:45:01;2.47;;;2.07;;
1020;SDS011;499;42.648;23.270;2024-02-04T14:47:31;3.03;;;2.50;;
1020;SDS011;499;42.648;23.270;2024-02-04T14:49:58;2.60;;;2.27;;
1020;SDS011;499;42.648;23.270;2024-02-04T14:52:25;5.33;;;2.90;;
1020;SDS011;499;42.648;23.270;2024-02-04T14:54:52;4.10;;;3.40;;
1020;SDS011;499;42.648;23.270;2024-02-04T14:57:19;3.10;;;2.80;;
1020;SDS011;499;42.648;23.270;2024-02-04T14:59:47;4.00;;;3.20;;
1020;SDS011;499;42.648;23.270;2024-02-04T15:02:14;5.77;;;3.57;;
1020;SDS011;499;42.648;23.270;2024-02-04T15:04:41;4.60;;;4.20;;
1020;SDS011;499;42.648;23.270;2024-02-04T15:07:08;4.40;;;3.97;;
1020;SDS011;499;42.648;23.270;2024-02-04T15:09:35;5.80;;;4.43;;
1020;SDS011;499;42.648;23.270;2024-02-04T15:12:03;4.97;;;4.47;;
1020;SDS011;499;42.648;23.270;2024-02-04T15:14:31;5.33;;;3.37;;
1020;SDS011;499;42.648;23.270;2024-02-04T15:17:00;2.73;;;2.03;;
1020;SDS011;499;42.648;23.270;2024-02-04T15:19:28;3.90;;;3.43;;
1020;SDS011;499;42.648;23.270;2024-02-04T15:21:58;3.43;;;2.80;;
1020;SDS011;499;42.648;23.270;2024-02-04T15:24:25;5.77;;;5.13;;
1020;SDS011;499;42.648;23.270;2024-02-04T15:26:53;11.20;;;9.23;;
1020;SDS011;499;42.648;23.270;2024-02-04T15:29:21;6.00;;;4.50;;
1020;SDS011;499;42.648;23.270;2024-02-04T15:31:49;6.17;;;4.90;;
1020;SDS011;499;42.648;23.270;2024-02-04T15:34:18;2.93;;;2.63;;
1020;SDS011;499;42.648;23.270;2024-02-04T15:36:45;3.50;;;3.00;;
1020;SDS011;499;42.648;23.270;2024-02-04T15:39:12;5.13;;;4.47;;
1020;SDS011;499;42.648;23.270;2024-02-04T15:41:40;5.73;;;5.13;;
1020;SDS011;499;42.648;23.270;2024-02-04T15:44:07;3.60;;;3.30;;
1020;SDS011;499;42.648;23.270;2024-02-04T15:46:34;3.80;;;3.40;;
1020;SDS011;499;42.648;23.270;2024-02-04T15:49:02;4.13;;;3.50;;
1020;SDS011;499;42.648;23.270;2024-02-04T15:51:36;4.67;;;3.53;;
1020;SDS011;499;42.648;23.270;2024-02-04T15:54:04;4.33;;;3.70;;
1020;SDS011;499;42.648;23.270;2024-02-04T15:56:33;4.40;;;4.00;;
1020;SDS011;499;42.648;23.270;2024-02-04T15:59:04;4.50;;;4.10;;
1020;SDS011;499;42.648;23.270;2024-02-04T16:01:35;5.70;;;4.53;;
1020;SDS011;499;42.648;23.270;2024-02-04T16:04:03;4.97;;;4.37;;
1020;SDS011;499;42.648;23.270;2024-02-04T16:06:30;10.00;;;6.90;;
1020;SDS011;499;42.648;23.270;2024-02-04T16:09:00;6.20;;;5.60;;
1020;SDS011;499;42.648;23.270;2024-02-04T16:11:28;4.33;;;3.60;;
1020;SDS011;499;42.648;23.270;2024-02-04T16:14:02;4.90;;;4.50;;
1020;SDS011;499;42.648;23.270;2024-02-04T16:16:33;6.60;;;3.23;;
1020;SDS011;499;42.648;23.270;2024-02-04T16:19:03;3.97;;;3.13;;
1020;SDS011;499;42.648;23.270;2024-02-04T16:21:32;2.63;;;2.43;;
1020;SDS011;499;42.648;23.270;2024-02-04T16:24:03;2.97;;;2.73;;
1020;SDS011;499;42.648;23.270;2024-02-04T16:26:31;2.93;;;2.07;;
1020;SDS011;499;42.648;23.270;2024-02-04T16:28:58;2.87;;;2.10;;
1020;SDS011;499;42.648;23.270;2024-02-04T16:31:25;3.80;;;2.30;;
1020;SDS011;499;42.648;23.270;2024-02-04T16:33:52;4.13;;;3.50;;
1020;SDS011;499;42.648;23.270;2024-02-04T16:36:20;3.07;;;2.40;;
1020;SDS011;499;42.648;23.270;2024-02-04T16:38:47;2.43;;;1.77;;
1020;SDS011;499;42.648;23.270;2024-02-04T16:41:16;2.90;;;1.97;;
1020;SDS011;499;42.648;23.270;2024-02-04T16:43:43;2.63;;;2.13;;
1020;SDS011;499;42.648;23.270;2024-02-04T16:46:10;3.20;;;2.20;;
1020;SDS011;499;42.648;23.270;2024-02-04T16:48:37;3.77;;;2.67;;
1020;SDS011;499;42.648;23.270;2024-02-04T16:51:04;3.77;;;2.97;;
1020;SDS011;499;42.648;23.270;2024-02-04T16:53:31;2.40;;;2.20;;
1020;SDS011;499;42.648;23.270;2024-02-04T16:55:58;4.80;;;4.30;;
1020;SDS011;499;42.648;23.270;2024-02-04T16:58:27;4.53;;;4.10;;
1020;SDS011;499;42.648;23.270;2024-02-04T17:00:54;3.37;;;2.90;;
1020;SDS011;499;42.648;23.270;2024-02-04T17:03:21;3.93;;;3.03;;
1020;SDS011;499;42.648;23.270;2024-02-04T17:05:49;3.37;;;2.60;;
1020;SDS011;499;42.648;23.270;2024-02-04T17:08:16;6.53;;;3.80;;
1020;SDS011;499;42.648;23.270;2024-02-04T17:10:44;2.67;;;2.43;;
1020;SDS011;499;42.648;23.270;2024-02-04T17:13:13;3.70;;;3.40;;
1020;SDS011;499;42.648;23.270;2024-02-04T17:15:42;5.70;;;3.00;;
1020;SDS011;499;42.648;23.270;2024-02-04T17:18:09;4.27;;;3.57;;
1020;SDS011;499;42.648;23.270;2024-02-04T17:20:43;3.60;;;3.30;;
1020;SDS011;499;42.648;23.270;2024-02-04T17:23:16;4.33;;;3.30;;
1020;SDS011;499;42.648;23.270;2024-02-04T17:25:47;3.80;;;3.40;;
1020;SDS011;499;42.648;23.270;2024-02-04T17:28:24;5.10;;;3.00;;
1020;SDS011;499;42.648;23.270;2024-02-04T17:30:53;3.40;;;2.63;;
1020;SDS011;499;42.648;23.270;2024-02-04T17:33:21;2.97;;;2.70;;
1020;SDS011;499;42.648;23.270;2024-02-04T17:35:48;3.40;;;3.10;;
1020;SDS011;499;42.648;23.270;2024-02-04T17:38:15;5.13;;;3.70;;
1020;SDS011;499;42.648;23.270;2024-02-04T17:40:43;3.77;;;3.43;;
1020;SDS011;499;42.648;23.270;2024-02-04T17:43:11;3.20;;;2.90;;
1020;SDS011;499;42.648;23.270;2024-02-04T17:45:38;3.37;;;3.07;;
1020;SDS011;499;42.648;23.270;2024-02-04T17:48:07;3.50;;;2.70;;
1020;SDS011;499;42.648;23.270;2024-02-04T17:50:34;3.40;;;2.90;;
1020;SDS011;499;42.648;23.270;2024-02-04T17:53:01;4.00;;;3.00;;